Flight Track Log - Related Links

Times and Time Zones

All times are in EDT time to prevent confusion due to time zone crossing. See the SKW6492 flight status page for this flight to view local times or setup timezone preferences in your user account.

Time Position Orientation Groundspeed Altitude Reporting Facility
EDT Latitude Longitude Course Direction KTS MPH feet Rate Location/Type
Sun 10:13:34 PM 39.9167 -104.7000 346° North 203 234 6,400  Level Denver TRACON
Sun 10:14:34 PM 39.9833 -104.6833 11° North 233 268 8,000 1,408 Climbing Denver TRACON
Sun 10:15:12 PM 40.0222 -104.6653 20° North 246 283 8,700 1,576 Climbing Denver Center
Sun 10:16:00 PM 40.2708 -104.8029 347° North  Level FlightAware Approximate
Sun 10:16:13 PM 40.1000 -104.6656 360° North 276 318 10,600  Level Denver Center
Sun 10:17:00 PM 40.3763 -104.8365 346° North  Level FlightAware Approximate
Sun 10:17:15 PM 40.1847 -104.6903 347° North 284 327 12,200  Level Denver Center
Sun 10:18:00 PM 40.4815 -104.8716 346° North  Level FlightAware Approximate
Sun 10:18:17 PM 40.2725 -104.7122 349° North 317 365 13,400  Level Denver Center
Sun 10:19:18 PM 40.3719 -104.7389 348° North 341 392 14,600 1,122 Climbing Denver Center
Sun 10:20:20 PM 40.4703 -104.7647 349° North 359 413 15,700 1,065 Climbing Denver Center
Sun 10:21:22 PM 40.5686 -104.7939 347° North 366 421 16,800 976 Climbing Denver Center
Sun 10:22:23 PM 40.6767 -104.8214 349° North 366 421 17,700 780 Climbing Denver Center
Sun 10:23:25 PM 40.7536 -104.8431 348° North 363 418 18,400 919 Climbing Denver Center
Sun 10:24:27 PM 40.8714 -104.8914 343° North 369 425 19,600 1,073 Climbing Denver Center
Sun 10:25:28 PM 40.9683 -104.9364 341° North 372 428 20,600 1,024 Climbing Denver Center
Sun 10:26:30 PM 41.0708 -104.9872 340° North 372 428 21,700 978 Climbing Denver Center
Sun 10:27:43 PM 41.1797 -105.0431 339° North 375 432 22,800 978 Climbing Denver Center
Sun 10:28:45 PM 41.2742 -105.1236 327° Northwest 365 420 23,900 1,065 Climbing Denver Center
Sun 10:29:47 PM 41.3611 -105.2172 321° Northwest 360 414 25,000 927 Climbing Denver Center
Sun 10:30:48 PM 41.4350 -105.2992 320° Northwest 360 414 25,800 780 Climbing Denver Center
Sun 10:31:50 PM 41.5211 -105.3928 321° Northwest 358 412 26,600 732 Climbing Denver Center
Sun 10:32:51 PM 41.5958 -105.4722 322° Northwest 358 412 27,300 683 Climbing Denver Center
Sun 10:33:53 PM 41.6706 -105.5544 321° Northwest 361 415 28,000 634 Climbing Denver Center
Sun 10:34:54 PM 41.7583 -105.6486 321° Northwest 361 415 28,600 537 Climbing Denver Center
Sun 10:35:56 PM 41.8347 -105.7328 321° Northwest 368 423 29,100 488 Climbing Denver Center
Sun 10:36:57 PM 41.9247 -105.8369 319° Northwest 379 436 29,600 488 Climbing Denver Center
Sun 10:37:59 PM 42.0011 -105.9289 318° Northwest 384 442 30,100 444 Climbing Denver Center
Sun 10:39:12 PM 42.0775 -106.0214 318° Northwest 386 444 30,600 489 Climbing Denver Center
Sun 10:40:14 PM 42.1742 -106.1439 317° Northwest 377 434 31,200 537 Climbing Denver Center
Sun 10:41:15 PM 42.2486 -106.2361 317° Northwest 380 437 31,700 390 Climbing Denver Center
Sun 10:42:17 PM 42.3356 -106.3439 318° Northwest 379 436 32,000 146 Climbing Denver Center
Sun 10:43:18 PM 42.4119 -106.4383 318° Northwest 387 445 32,000  Level Denver Center
Sun 10:44:20 PM 42.5019 -106.5511 317° Northwest 394 453 32,000  Level Denver Center
Sun 10:45:21 PM 42.5825 -106.6503 318° Northwest 406 467 32,000  Level Denver Center
Sun 10:46:22 PM 42.6614 -106.7506 317° Northwest 406 467 32,000  Level Denver Center
Sun 10:47:24 PM 42.7581 -106.8703 318° Northwest 417 480 32,000  Level Denver Center
Sun 10:48:25 PM 42.8364 -106.9756 315° West 417 480 32,000  Level Denver Center
Sun 10:49:26 PM 42.9331 -107.0969 317° Northwest 421 484 32,000  Level Denver Center
Sun 10:50:28 PM 43.0169 -107.2028 317° Northwest 426 490 32,000  Level Denver Center
Sun 10:51:29 PM 43.1056 -107.3172 317° Northwest 426 490 32,000  Level Denver Center
Sun 10:52:31 PM 43.1914 -107.4292 316° Northwest 427 491 32,000  Level Denver Center
Sun 10:53:32 PM 43.2778 -107.5419 316° Northwest 430 495 32,000  Level Denver Center
Sun 10:54:33 PM 43.3642 -107.6517 317° Northwest 426 490 32,000  Level Denver Center
Sun 10:55:35 PM 43.4500 -107.7644 316° Northwest 427 491 32,000 -49 Level Denver Center
Sun 10:56:36 PM 43.5364 -107.8797 316° Northwest 430 495 31,900 -1,033 Descending Denver Center
Sun 10:58:06 PM 43.6794 -108.0692 316° Northwest 445 512 29,400 -1,934 Descending Salt Lake Center
Sun 10:59:08 PM 43.7694 -108.1886 316° Northwest 448 516 27,000 -2,780 Descending Salt Lake Center
Sun 11:00:09 PM 43.8542 -108.3008 316° Northwest 433 498 23,700 -3,366 Descending Salt Lake Center
Sun 11:01:11 PM 43.9353 -108.4117 315° West 418 481 20,100 -3,366 Descending Salt Lake Center
Sun 11:02:12 PM 44.0169 -108.5203 316° Northwest 409 471 16,800 -3,220 Descending Salt Lake Center
Sun 11:03:14 PM 44.1011 -108.6222 319° Northwest 407 468 13,500 -3,073 Descending Salt Lake Center
Sun 11:04:15 PM 44.1856 -108.7175 321° Northwest 401 461 10,500 -1,805 Descending Salt Lake Center
Sun 11:05:17 PM 44.2658 -108.8214 317° Northwest 360 414 9,800 -976 Descending Salt Lake Center
Sun 11:06:18 PM 44.3214 -108.8964 316° Northwest 305 351 8,500 -927 Descending Salt Lake Center
Sun 11:07:20 PM 44.3742 -108.9564 321° Northwest 275 316 7,900 -439 Descending Salt Lake Center
Sun 11:08:21 PM 44.4211 -109.0083 322° Northwest 248 285 7,600 -295 Descending Salt Lake Center
Sun 11:09:22 PM 44.4594 -109.0536 320° Northwest 219 252 7,300 -295 Descending Salt Lake Center

Login

Don't have an account? Register now (free) for customized features, flight alerts, and more!